This is the latest recevied weather packets stored in our database for station/object KJ5IMV-13. If no packets are shown the sender has not sent any weather packets the latest 10 day(s).
| Time | Temp. | Humidity | Pressure | Rain* | Wind** | Luminosity | Snow |
|---|---|---|---|---|---|---|---|
| 1788036411 | 36.11° C | 57% | 1009.7 hPa | - | - | - | - |
| 1788035807 | 35.56° C | 60% | 1009.8 hPa | - | - | - | - |
| 1788033094 | 35° C | 63% | 1010.7 hPa | - | - | - | - |
| 1788024957 | 33.89° C | 71% | 1012.5 hPa | - | - | - | - |
| 1788024354 | 33.33° C | 71% | 1012.5 hPa | - | - | - | - |
| 1788022244 | 32.78° C | 75% | 1012.9 hPa | - | - | - | - |
| 1788021039 | 31.67° C | 77% | 1013 hPa | - | - | - | - |
| 1788020738 | 31.67° C | 78% | 1013 hPa | - | - | - | - |
| 1788020436 | 31.67° C | 78% | 1013 hPa | - | - | - | - |
| 1788019231 | 31.67° C | 79% | 1012.9 hPa | - | - | - | - |
| 1788018326 | 31.67° C | 84% | 1012.8 hPa | - | - | - | - |
| 1788017722 | 31.11° C | 85% | 1012.7 hPa | - | - | - | - |
| 1788017119 | 30.56° C | 86% | 1012.7 hPa | - | - | - | - |
| 1788016517 | 30° C | 89% | 1012.6 hPa | - | - | - | - |
| 1788015914 | 30° C | 90% | 1012.5 hPa | - | - | - | - |
| 1788015612 | 30° C | 90% | 1012.6 hPa | - | - | - | - |
| 1788015311 | 30° C | 89% | 1012.7 hPa | - | - | - | - |
| 1788014709 | 30° C | 92% | 1012.5 hPa | - | - | - | - |
| 1788014105 | 29.44° C | 93% | 1012.4 hPa | - | - | - | - |
| 1787839889 | 27.78° C | 93% | 1009.9 hPa | - | - | - | - |
| 1787839587 | 27.78° C | 95% | 1009.8 hPa | - | - | - | - |
| 1787764533 | 35° C | 67% | 1011.3 hPa | - | - | - | - |
| 1787759711 | 32.22° C | 79% | 1012 hPa | - | - | - | - |
| 1787759108 | 31.67° C | 78% | 1012.1 hPa | - | - | - | - |
| 1787757299 | 31.67° C | 81% | 1012.2 hPa | - | - | - | - |
* Rain since midnight (hover to see other rain measurements)
** Current wind speed in m/s (hover to see current wind gust speed)